createdAt,value
2023-02-18T00:00:13.890Z,83.00
2023-02-18T00:02:40.487Z,83.70
2023-02-18T00:05:07.200Z,84.10
2023-02-18T00:07:35.332Z,83.50
2023-02-18T00:10:02.465Z,84.60
2023-02-18T00:12:30.575Z,85.80
2023-02-18T00:14:57.408Z,87.30
2023-02-18T00:17:23.897Z,88.60
2023-02-18T00:19:50.454Z,89.60
2023-02-18T00:22:16.980Z,90.20
2023-02-18T00:24:43.521Z,90.30
2023-02-18T00:27:10.092Z,89.70
2023-02-18T00:29:36.687Z,90.00
2023-02-18T00:32:03.432Z,89.50
2023-02-18T00:34:30.037Z,90.00
2023-02-18T00:36:56.599Z,89.60
2023-02-18T00:39:23.224Z,88.50
2023-02-18T00:41:49.842Z,88.90
2023-02-18T00:44:16.374Z,88.50
2023-02-18T00:46:42.992Z,88.20
2023-02-18T00:49:09.775Z,89.10
2023-02-18T00:51:36.723Z,88.40
2023-02-18T00:54:03.317Z,88.10
2023-02-18T00:56:29.830Z,88.90
2023-02-18T00:58:56.399Z,89.40
2023-02-18T01:01:22.982Z,90.10
2023-02-18T01:03:49.918Z,90.40
2023-02-18T01:06:16.571Z,91.00
2023-02-18T01:08:43.339Z,91.50
2023-02-18T01:11:11.362Z,92.10
2023-02-18T01:13:38.287Z,92.10
2023-02-18T01:16:04.971Z,93.80
2023-02-18T01:18:31.621Z,94.60
2023-02-18T01:20:58.256Z,95.60
2023-02-18T01:23:24.782Z,95.70
2023-02-18T01:25:51.403Z,96.40
2023-02-18T01:28:19.262Z,96.80
2023-02-18T01:30:45.845Z,97.20
2023-02-18T01:33:12.412Z,97.80
2023-02-18T01:35:39.950Z,98.00
2023-02-18T01:38:06.617Z,98.80
2023-02-18T01:40:33.218Z,98.80
2023-02-18T01:42:59.732Z,98.80
2023-02-18T01:45:35.687Z,98.80
2023-02-18T01:48:04.712Z,99.20
2023-02-18T01:50:33.141Z,99.50
2023-02-18T01:52:59.904Z,99.60
2023-02-18T01:55:26.845Z,99.60
2023-02-18T01:57:53.602Z,99.90
2023-02-18T02:00:21.626Z,99.90
2023-02-18T02:02:49.358Z,99.90
2023-02-18T02:05:16.379Z,99.90
2023-02-18T02:07:44.608Z,99.90
2023-02-18T02:10:12.408Z,99.90
2023-02-18T02:12:57.436Z,99.90
2023-02-18T02:15:29.107Z,99.90
2023-02-18T02:17:58.638Z,99.90
2023-02-18T02:20:36.215Z,99.90
2023-02-18T02:23:35.212Z,99.90
2023-02-18T02:26:13.730Z,99.90
2023-02-18T02:28:40.255Z,99.90
2023-02-18T02:31:22.362Z,99.90
2023-02-18T02:34:01.246Z,99.90
2023-02-18T02:36:41.011Z,99.90
2023-02-18T02:39:20.021Z,99.90
2023-02-18T02:41:55.287Z,99.90
2023-02-18T02:44:25.955Z,99.90
2023-02-18T02:46:55.085Z,99.80
2023-02-18T02:49:21.620Z,99.70
2023-02-18T02:51:52.920Z,99.60
2023-02-18T02:54:21.139Z,99.10
2023-02-18T02:56:48.115Z,98.80
2023-02-18T02:59:20.267Z,98.80
2023-02-18T03:02:01.578Z,98.80
2023-02-18T03:04:28.071Z,98.40
2023-02-18T03:07:00.512Z,98.30
2023-02-18T03:09:39.448Z,98.20
2023-02-18T03:12:10.034Z,98.10
2023-02-18T03:14:56.520Z,97.70
2023-02-18T03:17:27.955Z,97.50
2023-02-18T03:20:02.833Z,97.20
2023-02-18T03:22:32.256Z,97.10
2023-02-18T03:24:59.899Z,97.20
2023-02-18T03:27:26.400Z,96.90
2023-02-18T03:29:55.870Z,96.70
2023-02-18T03:32:23.357Z,96.60
2023-02-18T03:34:58.581Z,96.50
2023-02-18T03:37:25.148Z,96.50
2023-02-18T03:39:54.421Z,96.50
2023-02-18T03:42:24.938Z,96.60
2023-02-18T03:44:51.468Z,96.40
2023-02-18T03:47:18.042Z,96.20
2023-02-18T03:49:44.598Z,95.90
2023-02-18T03:52:11.423Z,95.90
2023-02-18T03:54:38.131Z,95.50
2023-02-18T03:57:04.700Z,95.50
2023-02-18T03:59:31.248Z,96.00
2023-02-18T04:01:57.805Z,96.10
2023-02-18T04:04:24.379Z,95.60
2023-02-18T04:06:50.922Z,96.20
2023-02-18T04:09:17.438Z,96.50
2023-02-18T04:11:44.080Z,97.00
2023-02-18T04:14:13.011Z,97.20
2023-02-18T04:16:39.992Z,97.60
2023-02-18T04:19:06.555Z,97.80
2023-02-18T04:21:33.902Z,98.10
2023-02-18T04:24:01.071Z,98.40
2023-02-18T04:26:27.592Z,98.80
2023-02-18T04:28:54.292Z,98.80
2023-02-18T04:31:21.012Z,98.70
2023-02-18T04:33:47.677Z,98.80
2023-02-18T04:36:14.212Z,98.80
2023-02-18T04:38:43.090Z,98.80
2023-02-18T04:41:09.805Z,98.10
2023-02-18T04:43:36.434Z,97.90
2023-02-18T04:46:03.079Z,97.20
2023-02-18T04:48:29.982Z,96.50
2023-02-18T04:50:56.489Z,96.30
2023-02-18T04:53:23.032Z,96.20
2023-02-18T04:55:53.223Z,95.80
2023-02-18T04:58:20.333Z,95.50
2023-02-18T05:00:47.309Z,95.50
2023-02-18T05:03:14.066Z,94.80
2023-02-18T05:05:41.813Z,94.60
2023-02-18T05:08:08.693Z,94.00
2023-02-18T05:10:35.936Z,93.80
2023-02-18T05:13:02.481Z,93.70
2023-02-18T05:15:29.174Z,93.90
2023-02-18T05:17:55.999Z,94.40
2023-02-18T05:20:22.860Z,94.10
2023-02-18T05:22:49.633Z,94.20
2023-02-18T05:25:16.250Z,93.80
2023-02-18T05:27:42.767Z,93.80
2023-02-18T05:30:09.572Z,93.80
2023-02-18T05:32:36.136Z,93.80
2023-02-18T05:35:02.675Z,93.70
2023-02-18T05:37:29.227Z,93.80
2023-02-18T05:39:55.748Z,93.80
2023-02-18T05:42:23.328Z,93.80
2023-02-18T05:44:49.864Z,93.90
2023-02-18T05:47:16.490Z,93.80
2023-02-18T05:49:43.431Z,93.80
2023-02-18T05:52:10.324Z,93.80
2023-02-18T05:54:37.406Z,93.40
2023-02-18T05:57:04.076Z,93.30
2023-02-18T05:59:30.654Z,92.70
2023-02-18T06:01:57.396Z,92.80
2023-02-18T06:04:23.980Z,93.10
2023-02-18T06:06:50.590Z,93.20
2023-02-18T06:09:17.228Z,92.70
2023-02-18T06:11:43.761Z,92.60
2023-02-18T06:14:10.445Z,92.80
2023-02-18T06:16:37.006Z,92.60
2023-02-18T06:19:03.711Z,92.20
2023-02-18T06:21:30.301Z,92.00
2023-02-18T06:23:56.846Z,92.00
2023-02-18T06:26:23.671Z,90.90
2023-02-18T06:28:50.295Z,89.80
2023-02-18T06:31:18.039Z,89.70
2023-02-18T06:33:44.908Z,87.20
2023-02-18T06:36:12.257Z,87.70
2023-02-18T06:38:42.346Z,86.70
2023-02-18T06:41:09.601Z,85.70
2023-02-18T06:43:36.178Z,84.90
2023-02-18T06:46:03.354Z,83.80
2023-02-18T06:48:29.989Z,82.70
2023-02-18T06:50:56.626Z,81.30
2023-02-18T06:53:23.438Z,81.00
2023-02-18T06:55:50.440Z,79.70
2023-02-18T06:58:17.703Z,79.90
2023-02-18T07:00:44.872Z,79.80
2023-02-18T07:03:12.989Z,78.80
2023-02-18T07:05:39.666Z,78.70
2023-02-18T07:08:06.210Z,78.70
2023-02-18T07:10:32.826Z,78.70
2023-02-18T07:12:59.362Z,78.70
2023-02-18T07:15:27.773Z,78.70
2023-02-18T07:17:54.541Z,78.80
2023-02-18T07:20:21.375Z,78.70
2023-02-18T07:22:48.021Z,78.70
2023-02-18T07:25:15.056Z,78.80
2023-02-18T07:27:41.743Z,75.40
2023-02-18T07:30:08.793Z,73.00
2023-02-18T07:32:35.684Z,72.10
2023-02-18T07:35:02.941Z,70.50
2023-02-18T07:37:29.497Z,69.50
2023-02-18T07:39:56.039Z,68.10
2023-02-18T07:42:22.577Z,68.00
2023-02-18T07:44:49.230Z,67.70
2023-02-18T07:47:18.793Z,67.80
2023-02-18T07:49:45.812Z,68.00
2023-02-18T07:52:13.113Z,68.40
2023-02-18T07:54:39.685Z,68.20
2023-02-18T07:57:06.212Z,67.50
2023-02-18T07:59:32.712Z,67.60
2023-02-18T08:01:59.522Z,67.00
2023-02-18T08:04:26.111Z,65.40
2023-02-18T08:06:52.671Z,63.60
2023-02-18T08:09:19.226Z,62.00
2023-02-18T08:11:45.807Z,59.80
2023-02-18T08:14:12.307Z,59.70
2023-02-18T08:16:38.870Z,57.70
2023-02-18T08:19:05.469Z,53.20
2023-02-18T08:21:32.069Z,51.00
2023-02-18T08:23:59.413Z,48.60
2023-02-18T08:26:26.020Z,47.20
2023-02-18T08:28:52.574Z,44.60
2023-02-18T08:31:20.520Z,42.10
2023-02-18T08:33:47.295Z,36.10
2023-02-18T08:36:14.012Z,32.00
2023-02-18T08:38:40.525Z,27.10
2023-02-18T08:41:08.403Z,24.40
2023-02-18T08:43:35.154Z,23.50
2023-02-18T08:46:01.677Z,24.70
2023-02-18T08:48:28.656Z,26.80
2023-02-18T08:50:55.458Z,26.80
2023-02-18T08:53:22.175Z,26.10
2023-02-18T08:55:48.838Z,26.80
2023-02-18T08:58:15.438Z,26.80
2023-02-18T09:00:43.100Z,26.20
2023-02-18T09:03:12.570Z,25.90
2023-02-18T09:05:39.377Z,24.70
2023-02-18T09:08:06.303Z,23.80
2023-02-18T09:10:32.831Z,24.20
2023-02-18T09:12:59.438Z,23.90
2023-02-18T09:15:25.934Z,23.80
2023-02-18T09:17:52.491Z,26.10
2023-02-18T09:20:19.105Z,26.80
2023-02-18T09:22:45.630Z,26.80
2023-02-18T09:25:12.263Z,25.20
2023-02-18T09:27:38.960Z,24.30
2023-02-18T09:30:05.958Z,23.90
2023-02-18T09:32:34.998Z,23.80
2023-02-18T09:35:02.705Z,24.70
2023-02-18T09:37:29.317Z,25.20
2023-02-18T09:39:56.059Z,24.90
2023-02-18T09:42:30.308Z,24.40
2023-02-18T09:45:00.204Z,23.70
2023-02-18T09:47:29.798Z,22.40
2023-02-18T09:49:58.925Z,22.40
2023-02-18T09:52:29.866Z,22.40
2023-02-18T09:54:56.509Z,22.50
2023-02-18T09:57:27.038Z,21.30
2023-02-18T09:59:57.482Z,22.40
2023-02-18T10:02:24.330Z,20.60
2023-02-18T10:04:52.275Z,20.30
2023-02-18T10:07:26.940Z,20.40
2023-02-18T10:09:56.419Z,19.50
2023-02-18T10:12:24.766Z,19.50
2023-02-18T10:14:52.379Z,19.80
2023-02-18T10:17:19.047Z,18.40
2023-02-18T10:19:47.442Z,18.90
2023-02-18T10:22:15.104Z,18.70
2023-02-18T10:24:53.021Z,17.80
2023-02-18T10:27:24.803Z,17.80
2023-02-18T10:29:51.528Z,16.70
2023-02-18T10:32:27.248Z,16.80
2023-02-18T10:35:14.041Z,16.20
2023-02-18T10:37:53.984Z,17.00
2023-02-18T10:40:23.550Z,18.20
2023-02-18T10:43:06.809Z,17.70
2023-02-18T10:45:53.615Z,16.50
2023-02-18T10:48:35.675Z,14.50
2023-02-18T10:51:05.118Z,13.30
2023-02-18T10:53:34.370Z,12.10
2023-02-18T10:56:01.240Z,11.60
2023-02-18T10:58:31.288Z,11.60
2023-02-18T11:00:58.744Z,12.90
2023-02-18T11:03:42.123Z,12.30
2023-02-18T11:06:23.900Z,12.30
2023-02-18T11:08:50.715Z,11.40
2023-02-18T11:11:20.850Z,10.40
2023-02-18T11:13:52.721Z,8.60
2023-02-18T11:16:21.497Z,9.50
2023-02-18T11:18:48.067Z,8.90
2023-02-18T11:21:23.806Z,8.70
2023-02-18T11:23:52.476Z,8.70
2023-02-18T11:26:25.118Z,8.80
2023-02-18T11:28:56.242Z,8.70
2023-02-18T11:31:24.391Z,8.60
2023-02-18T11:33:52.978Z,8.70
2023-02-18T11:36:24.212Z,8.70
2023-02-18T11:38:53.266Z,8.10
2023-02-18T11:41:21.408Z,8.80
2023-02-18T11:43:49.929Z,8.10
2023-02-18T11:46:21.488Z,6.50
2023-02-18T11:48:48.612Z,5.10
2023-02-18T11:51:19.418Z,4.10
2023-02-18T11:53:59.760Z,4.30
2023-02-18T11:56:28.029Z,4.30
2023-02-18T11:58:55.056Z,2.50
2023-02-18T12:01:27.679Z,1.00
2023-02-18T12:03:58.502Z,1.00
2023-02-18T12:06:28.061Z,1.10
2023-02-18T12:08:56.895Z,1.20
2023-02-18T12:11:36.592Z,1.00
2023-02-18T12:14:03.536Z,1.00
2023-02-18T12:16:45.764Z,1.10
2023-02-18T12:19:27.429Z,1.00
2023-02-18T12:21:54.526Z,1.00
2023-02-18T12:24:23.789Z,1.50
2023-02-18T12:27:05.609Z,1.50
2023-02-18T12:29:38.579Z,2.00
2023-02-18T12:32:10.049Z,2.40
2023-02-18T12:34:39.636Z,1.00
2023-02-18T12:37:09.171Z,1.00
2023-02-18T12:40:05.546Z,1.00
2023-02-18T12:42:50.042Z,1.00
2023-02-18T12:45:22.448Z,1.00
2023-02-18T12:47:52.017Z,1.00
2023-02-18T12:50:36.940Z,1.00
2023-02-18T12:53:13.244Z,1.00
2023-02-18T12:55:45.918Z,1.00
2023-02-18T12:58:12.417Z,1.00
2023-02-18T13:00:44.319Z,1.00
2023-02-18T13:03:29.305Z,1.00
2023-02-18T13:06:14.660Z,1.00
2023-02-18T13:09:00.254Z,1.00
2023-02-18T13:11:31.900Z,1.00
2023-02-18T13:14:11.029Z,1.00
2023-02-18T13:16:38.863Z,1.00
2023-02-18T13:19:24.446Z,1.00
2023-02-18T13:21:53.201Z,1.00
2023-02-18T13:24:36.477Z,1.00
2023-02-18T13:27:06.231Z,1.00
2023-02-18T13:29:35.514Z,1.00
2023-02-18T13:32:10.593Z,1.00
2023-02-18T13:34:40.013Z,1.00
2023-02-18T13:37:18.784Z,1.00
2023-02-18T13:39:48.953Z,1.00
2023-02-18T13:42:18.469Z,1.00
2023-02-18T13:44:47.990Z,1.00
2023-02-18T13:47:34.490Z,1.00
2023-02-18T13:50:13.808Z,1.00
2023-02-18T13:52:40.593Z,1.00
2023-02-18T13:55:18.389Z,1.00
2023-02-18T13:57:46.678Z,1.00
2023-02-18T14:00:24.216Z,1.00
2023-02-18T14:02:58.618Z,1.00
2023-02-18T14:05:37.485Z,1.10
2023-02-18T14:08:14.415Z,1.50
2023-02-18T14:10:41.257Z,1.50
2023-02-18T14:13:25.064Z,3.10
2023-02-18T14:15:56.331Z,3.60
2023-02-18T14:18:41.324Z,3.40
2023-02-18T14:21:14.102Z,3.40
2023-02-18T14:23:44.981Z,3.40
2023-02-18T14:26:14.322Z,3.40
2023-02-18T14:28:44.839Z,3.30
2023-02-18T14:31:11.750Z,4.80
2023-02-18T14:34:02.096Z,4.30
2023-02-18T14:36:28.589Z,3.90
2023-02-18T14:38:57.942Z,6.20
2023-02-18T14:41:25.546Z,6.50
2023-02-18T14:44:08.455Z,7.40
2023-02-18T14:46:42.129Z,7.10
2023-02-18T14:49:21.282Z,7.70
2023-02-18T14:51:48.182Z,8.10
2023-02-18T14:54:17.571Z,7.80
2023-02-18T14:56:53.956Z,7.60
2023-02-18T14:59:21.918Z,8.10
2023-02-18T15:01:48.583Z,8.10
2023-02-18T15:04:15.545Z,8.50
2023-02-18T15:06:42.123Z,12.90
2023-02-18T15:09:22.274Z,16.50
2023-02-18T15:11:51.396Z,18.60
2023-02-18T15:14:19.694Z,20.70
2023-02-18T15:16:46.842Z,22.50
2023-02-18T15:19:15.603Z,24.90
2023-02-18T15:21:43.558Z,25.40
2023-02-18T15:24:18.960Z,26.10
2023-02-18T15:26:49.086Z,27.80
2023-02-18T15:29:19.483Z,27.60
2023-02-18T15:31:47.273Z,27.30
2023-02-18T15:34:31.170Z,30.00
2023-02-18T15:36:59.763Z,30.70
2023-02-18T15:39:26.916Z,36.70
2023-02-18T15:41:54.997Z,40.00
2023-02-18T15:44:27.374Z,41.80
2023-02-18T15:46:54.005Z,45.80
2023-02-18T15:49:22.429Z,47.80
2023-02-18T15:51:49.656Z,49.20
2023-02-18T15:54:22.014Z,50.90
2023-02-18T15:56:53.247Z,52.30
2023-02-18T15:59:35.894Z,52.30
2023-02-18T16:02:09.315Z,52.20
2023-02-18T16:04:40.592Z,52.10
2023-02-18T16:07:19.848Z,52.10
2023-02-18T16:09:46.975Z,52.10
2023-02-18T16:12:32.247Z,52.00
2023-02-18T16:14:59.070Z,52.60
2023-02-18T16:17:26.531Z,52.00
2023-02-18T16:20:03.847Z,53.10
2023-02-18T16:22:31.196Z,54.20
2023-02-18T16:24:59.395Z,56.80
2023-02-18T16:27:31.947Z,59.20
2023-02-18T16:30:00.201Z,61.90
2023-02-18T16:32:27.004Z,63.20
2023-02-18T16:34:53.648Z,66.20
2023-02-18T16:37:38.589Z,69.70
2023-02-18T16:40:19.922Z,70.50
2023-02-18T16:42:46.430Z,72.80
2023-02-18T16:45:13.350Z,75.80
2023-02-18T16:47:40.364Z,78.80
2023-02-18T16:50:13.857Z,81.40
2023-02-18T16:52:40.359Z,84.80
2023-02-18T16:55:17.013Z,86.90
2023-02-18T16:57:43.531Z,86.80
2023-02-18T17:00:10.438Z,86.30
2023-02-18T17:02:37.073Z,86.80
2023-02-18T17:05:06.243Z,87.10
2023-02-18T17:07:34.373Z,89.30
2023-02-18T17:10:32.482Z,89.40
2023-02-18T17:12:59.012Z,90.30
2023-02-18T17:15:28.596Z,90.70
2023-02-18T17:17:56.356Z,90.70
2023-02-18T17:20:22.914Z,90.20
2023-02-18T17:22:49.501Z,87.60
2023-02-18T17:25:20.274Z,82.20
2023-02-18T17:27:48.100Z,76.30
2023-02-18T17:30:14.869Z,73.40
2023-02-18T17:32:41.922Z,71.10
2023-02-18T17:35:09.974Z,71.10
2023-02-18T17:37:36.471Z,70.00
2023-02-18T17:40:03.061Z,70.00
2023-02-18T17:42:31.583Z,69.20
2023-02-18T17:44:58.136Z,68.20
2023-02-18T17:47:24.647Z,67.30
2023-02-18T17:49:51.146Z,66.10
2023-02-18T17:52:27.862Z,67.10
2023-02-18T17:54:54.395Z,67.10
2023-02-18T17:57:20.944Z,67.70
2023-02-18T17:59:47.485Z,66.60
2023-02-18T18:02:27.119Z,67.50
2023-02-18T18:04:54.126Z,67.20
2023-02-18T18:07:20.740Z,65.10
2023-02-18T18:09:47.323Z,65.40
2023-02-18T18:12:14.745Z,63.10
2023-02-18T18:14:41.326Z,62.20
2023-02-18T18:17:14.002Z,61.20
2023-02-18T18:19:41.064Z,61.20
2023-02-18T18:22:07.872Z,61.10
2023-02-18T18:24:34.362Z,60.00
2023-02-18T18:27:00.977Z,59.20
2023-02-18T18:29:27.483Z,59.00
2023-02-18T18:31:54.068Z,59.20
2023-02-18T18:34:21.011Z,59.20
2023-02-18T18:36:47.609Z,61.20
2023-02-18T18:39:14.136Z,61.20
2023-02-18T18:41:40.683Z,61.20
2023-02-18T18:44:07.239Z,61.20
2023-02-18T18:46:33.793Z,60.80
2023-02-18T18:49:00.378Z,61.00
2023-02-18T18:51:32.138Z,61.10
2023-02-18T18:53:58.696Z,58.80
2023-02-18T18:56:25.292Z,59.50
2023-02-18T18:58:51.980Z,59.30
2023-02-18T19:01:20.066Z,58.50
2023-02-18T19:03:47.144Z,60.00
2023-02-18T19:06:14.358Z,61.10
2023-02-18T19:08:41.011Z,61.10
2023-02-18T19:11:07.913Z,61.10
2023-02-18T19:13:36.108Z,61.90
2023-02-18T19:16:05.868Z,62.70
2023-02-18T19:18:33.670Z,62.70
2023-02-18T19:21:04.677Z,63.70
2023-02-18T19:23:31.734Z,63.70
2023-02-18T19:25:58.941Z,64.60
2023-02-18T19:28:26.038Z,65.30
2023-02-18T19:30:52.590Z,65.90
2023-02-18T19:33:19.202Z,65.50
2023-02-18T19:35:45.829Z,66.20
2023-02-18T19:38:13.744Z,66.70
2023-02-18T19:40:40.391Z,66.20
2023-02-18T19:43:07.610Z,66.60
2023-02-18T19:45:35.729Z,67.10
2023-02-18T19:48:02.362Z,66.60
2023-02-18T19:50:31.069Z,66.60
2023-02-18T19:52:58.879Z,66.50
2023-02-18T19:55:25.448Z,66.10
2023-02-18T19:57:52.005Z,66.60
2023-02-18T20:00:19.195Z,65.80
2023-02-18T20:02:45.759Z,66.80
2023-02-18T20:05:12.787Z,65.30
2023-02-18T20:07:41.354Z,63.80
2023-02-18T20:10:10.340Z,62.40
2023-02-18T20:12:36.911Z,62.30
2023-02-18T20:15:03.999Z,62.50
2023-02-18T20:17:30.626Z,62.10
2023-02-18T20:19:57.129Z,61.70
2023-02-18T20:22:23.756Z,60.90
2023-02-18T20:24:50.302Z,60.90
2023-02-18T20:27:16.914Z,60.90
2023-02-18T20:29:43.414Z,60.90
2023-02-18T20:32:10.055Z,60.90
2023-02-18T20:34:36.658Z,61.00
2023-02-18T20:37:03.197Z,60.90
2023-02-18T20:39:29.772Z,60.20
2023-02-18T20:41:57.862Z,58.50
2023-02-18T20:44:26.093Z,58.00
2023-02-18T20:46:52.656Z,58.00
2023-02-18T20:49:20.360Z,58.40
2023-02-18T20:51:46.992Z,58.10
2023-02-18T20:54:15.789Z,56.90
2023-02-18T20:56:43.563Z,57.00
2023-02-18T20:59:13.687Z,56.50
2023-02-18T21:01:41.265Z,55.70
2023-02-18T21:04:07.932Z,56.00
2023-02-18T21:06:34.456Z,55.90
2023-02-18T21:09:01.048Z,54.50
2023-02-18T21:11:27.710Z,54.60
2023-02-18T21:13:55.077Z,55.00
2023-02-18T21:16:22.216Z,54.70
2023-02-18T21:18:48.906Z,54.90
2023-02-18T21:21:15.484Z,54.10
2023-02-18T21:23:42.032Z,54.40
2023-02-18T21:26:13.117Z,53.30
2023-02-18T21:28:39.842Z,52.90
2023-02-18T21:31:20.442Z,52.80
2023-02-18T21:33:47.274Z,52.50
2023-02-18T21:36:14.385Z,52.70
2023-02-18T21:38:42.944Z,52.60
2023-02-18T21:41:09.734Z,52.10
2023-02-18T21:43:36.437Z,52.40
2023-02-18T21:46:09.937Z,51.90
2023-02-18T21:48:55.111Z,50.70
2023-02-18T21:51:40.241Z,50.60
2023-02-18T21:54:06.774Z,51.20
2023-02-18T21:56:33.282Z,51.90
2023-02-18T21:58:59.811Z,51.70
2023-02-18T22:01:27.709Z,52.70
2023-02-18T22:03:55.358Z,53.30
2023-02-18T22:06:21.906Z,54.10
2023-02-18T22:08:48.599Z,54.70
2023-02-18T22:11:15.186Z,55.40
2023-02-18T22:13:41.744Z,56.50
2023-02-18T22:16:08.268Z,56.70
2023-02-18T22:18:34.843Z,56.30
2023-02-18T22:21:05.531Z,56.60
2023-02-18T22:23:32.056Z,56.10
2023-02-18T22:26:02.156Z,56.70
2023-02-18T22:28:28.690Z,56.90
2023-02-18T22:30:55.201Z,57.10
2023-02-18T22:33:21.702Z,57.20
2023-02-18T22:35:48.203Z,57.70
2023-02-18T22:38:14.791Z,58.30
2023-02-18T22:40:41.328Z,58.90
2023-02-18T22:43:07.869Z,58.80
2023-02-18T22:45:37.306Z,59.30
2023-02-18T22:48:04.001Z,60.50
2023-02-18T22:50:30.534Z,60.50
2023-02-18T22:52:57.334Z,60.50
2023-02-18T22:55:23.863Z,60.50
2023-02-18T22:57:50.555Z,60.50
2023-02-18T23:00:17.222Z,60.50
2023-02-18T23:02:49.687Z,60.50
2023-02-18T23:05:16.227Z,60.50
2023-02-18T23:07:42.717Z,60.50
2023-02-18T23:10:09.304Z,60.50
2023-02-18T23:12:35.813Z,60.60
2023-02-18T23:15:02.362Z,61.60
2023-02-18T23:17:28.855Z,62.50
2023-02-18T23:19:55.373Z,62.80
2023-02-18T23:22:33.437Z,63.20
2023-02-18T23:25:00.824Z,63.50
2023-02-18T23:27:27.909Z,64.40
2023-02-18T23:29:56.227Z,64.40
2023-02-18T23:32:22.844Z,65.20
2023-02-18T23:34:52.469Z,65.50
2023-02-18T23:37:38.956Z,66.00
2023-02-18T23:40:06.308Z,66.40
2023-02-18T23:42:32.817Z,69.10
2023-02-18T23:44:59.432Z,69.10
2023-02-18T23:47:25.921Z,69.70
2023-02-18T23:49:52.472Z,69.20
2023-02-18T23:52:19.056Z,69.20
2023-02-18T23:54:45.673Z,71.10
2023-02-18T23:57:12.180Z,72.10
2023-02-18T23:59:38.710Z,73.40
